Tiempo atmosférico en la estación meteorológica de Valencia De Alcántara, Cáceres (445 m.)



Fecha
DESCASC
Temp. máxima en grados centígrados (hora)
DESCASC
Temp. mínima en grados centígrados (hora)
DESCASC
Temp. media en grados centígrados
DESCASC
Racha de viento máxima en m/sg (hora)
DESCASC
Velocidad máxima media en intervalos de 10 minutos(hora)
DESCASC
Precipitaciones diarias en mm
DESCASC
Precipitaciones de 00:00 a 06:00 en mm
DESCASC
Precipitaciones de 06:00 a 12:00 en mm
DESCASC
Precipitaciones de 12:00 a 18:00 en mm
DESCASC
Precipitaciones de 18:00 a 24:00 en mm
DESCASC
08-12-2019 14.5 (15:10) 4.3 (06:10) 9.4 6.11 (16:30) 3.33 (14:40) 0.6 0 0 0 0.6
07-12-2019 14.1 (16:00) 3.2 (08:40) 8.7 4.17 (11:30) 2.5 (22:50) 0 0 0 0 0
06-12-2019 14.8 (16:20) 3.5 (05:10) 9.2 8.61 (14:40) 5 (14:40) 0 0 0 0 0
05-12-2019 13.6 (16:00) 3.6 (00:00) 8.6 11.11 (16:10) 6.11 (16:10) 0 0 0 0 0
04-12-2019 12.7 (16:20) 3.4 (00:00) 8 7.22 (01:50) 3.89 (14:30) 0 0 0 0 0
03-12-2019 11.4 (16:20) 3.6 (00:00) 7.5 9.17 (00:50) 4.72 (00:10) 0 0 0 0 0
02-12-2019 12.6 (15:50) 7.1 (00:00) 9.9 14.44 (13:20) 8.33 (13:40) 0.4 0.4 0 0 0
01-12-2019 12.6 (15:10) 7.3 (00:00) 10 10.83 (07:30) 6.67 (09:10) 3.6 0.2 0.8 1.8 0.8
30-11-2019 15.8 (13:00) 9.4 (00:00) 12.6 13.06 (11:50) 6.67 (12:20) 3.6 0 0 3.4 0.2
29-11-2019 16.5 (14:00) 13.6 (00:00) 15.1 9.44 (02:40) 5.56 (02:50) 0 0 0 0 0
28-11-2019 16 (15:40) 10.9 (00:00) 13.4 10.56 (15:00) 5.83 (23:10) 0 0 0 0 0
27-11-2019 14.8 (14:10) 10.2 (00:00) 12.5 10.56 (01:30) 5.83 (15:50) 0.2 0 0 0 0.2
26-11-2019 16.2 (14:30) 12.8 (00:00) 14.5 14.72 (12:50) 8.33 (12:30) 2 0 0.4 0.8 0.8
25-11-2019 16.6 (15:20) 12.2 (00:00) 14.4 15.28 (00:10) 7.22 (00:50) 1.4 1 0.4 0 0
24-11-2019 13.7 (14:10) 6.7 (00:00) 10.2 12.5 (23:59) 6.11 (23:50) 0 0 0 0 0
23-11-2019 12.6 (13:50) 7.9 (00:00) 10.3 16.11 (00:10) 9.17 (00:10) 0.2 0.2 0 0 0
22-11-2019 15.7 (13:40) 10.2 (00:00) 12.9 23.06 (21:30) 11.67 (15:10) 17.8 1.8 12.8 2.6 0.6
21-11-2019 14.3 (15:40) 8.5 (00:00) 11.4 5.83 (07:40) 3.61 (07:40) 3.4 1.8 1.6 0 0
20-11-2019 10.7 (16:50) 6.8 (00:00) 8.8 11.39 (08:30) 6.39 (08:30) 5.4 3.6 1.8 0 0
19-11-2019 11.9 (13:20) 2.3 (00:00) 7.1 6.11 (22:50) 3.33 (22:50) 0 0 0 0 0
18-11-2019 13.2 (15:40) 4.4 (00:00) 8.8 7.22 (03:40) 4.72 (03:40) 0 0 0 0 0
17-11-2019 14.6 (15:10) 6.8 (00:00) 10.7 14.17 (19:40) 7.78 (17:30) 5.6 0.4 1 3.2 1
16-11-2019 12 (16:40) 1.5 (00:00) 6.8 8.33 (19:50) 4.72 (16:30) 0 0 0 0 0
15-11-2019 11.2 (15:50) 4.3 (00:00) 7.8 12.22 (01:30) 6.39 (02:20) 0 0 0 0 0
14-11-2019 11.4 (14:30) 6.4 (00:00) 8.9 18.33 (14:50) 10.56 (14:50) 1.6 0 0.8 0.8 0
13-11-2019 17.4 (13:40) 9.7 (00:00) 13.5 17.22 (03:10) 8.61 (00:20) 0.6 0 0.6 0 0
12-11-2019 15.3 (16:00) 7.3 (00:00) 11.3 15 (23:59) 8.33 (23:59) 0 0 0 0 0
11-11-2019 17.5 (14:30) 9.4 (23:00) 13.4 12.5 (16:30) 7.5 (16:30) 0 0 0 0 0

Gráficas

Temp. máximas Temp. mínimas Temp. medias Precipitaciones Rachas de viento máximas Velocidades máximas media en intervalos de 10 minutos

Datos horarios

Fecha y hora oficial Temperatura (ºC) Velocidad del viento (km/h) Dirección del viento Racha (km/h) Dirección de racha Precipitación (mm) Presión (hPa) Tendencia (hPa) Humedad (%)
2019-12-10 23:00:00 5 6 Sudoeste 9 Sudoeste 0 973.8 -0.5 93
2019-12-10 22:00:00 6.2 4 Sur 12 Sur 0 973.9 -0.1 92
2019-12-10 21:00:00 7.5 7 Sudeste 10 Sudeste 0 974.2 0.1 91
2019-12-10 20:00:00 8.7 4 Sur 5 Sur 0 974.3 0.2 88
2019-12-10 19:00:00 9.7 3 Sur 8 Noroeste 0 974 -0.6 83
2019-12-10 18:00:00 11.1 4 Norte 8 Este 0 974.1 -1.3 78
2019-12-10 17:00:00 11.9 2 Nordeste 9 Norte 0 974.1 -1.8 73
2019-12-10 16:00:00 11.9 5 Noroeste 9 Noroeste 0 974.6 -2.1 73
2019-12-10 15:00:00 11 4 Norte 9 Norte 0 975.4 -2.3 76
2019-12-10 14:00:00 10.1 5 Nordeste 11 Nordeste -- 975.9 -1.6 78
2019-12-10 13:00:00 9 6 Norte 11 Norte -- 976.7 -0.4 83
2019-12-10 12:00:00 6.6 5 Norte 11 Nordeste -- 977.7 0.9 94
2019-12-10 11:00:00 5.4 6 Nordeste 13 Este 0 977.5 0.9 94
2019-12-10 10:00:00 5.2 4 Este 12 Este 0 977.1 0.6 86
2019-12-10 09:00:00 2.7 6 Sur 10 Sudeste 0 976.8 0.4 87
2019-12-10 08:00:00 3 6 Sur 10 Sudoeste 0 976.6 -0.3 86
2019-12-10 07:00:00 3 7 Sur 10 Sudoeste 0 976.5 -0.3 87
2019-12-10 06:00:00 2.9 5 Sur 12 Sudoeste 0 976.4 -0.5 87
2019-12-10 05:00:00 3.5 6 Sur 13 Sudoeste 0 976.9 -0.6 84
2019-12-10 04:00:00 3.7 8 Sudoeste 10 Sudoeste 0 976.8 -0.8 84
2019-12-10 03:00:00 4.1 6 Sudoeste 10 Sur 0 976.9 -0.8 85
2019-12-10 02:00:00 4.6 7 Sur 10 Sur 0 977.5 -0.3 84
2019-12-10 01:00:00 4.9 8 Sur 10 Sudoeste 0 977.6 -0.1 80
2019-12-10 00:00:00 4.9 7 Sur 10 Sur 0 977.7 0.1 80
2019-12-09 23:00:00 5.2 6 Sudoeste 9 Sur 0 977.8 0.4 77
2019-12-09 22:00:00 6.1 5 Sudoeste 9 Sur 0 977.7 0.7 76
2019-12-09 21:00:00 7.7 8 Sudoeste 11 Sur 0 977.6 0.9 72
2019-12-09 20:00:00 9.7 5 Sur 10 Sudoeste 0 977.4 0.5 67
2019-12-09 19:00:00 12 6 Sudoeste 9 Oeste 0 977 0.1 60
2019-12-09 18:00:00 15.8 3 Sudoeste 9 Oeste 0 976.7 -0.3 45
2019-12-09 17:00:00 15.2 6 Oeste 15 Oeste 0 976.9 -0.6 44
2019-12-09 16:00:00 15.1 8 Oeste 13 Noroeste 0 976.9 -1.3 45
2019-12-09 15:00:00 14.8 5 Noroeste 12 Noroeste 0 977 -1.4 45
2019-12-09 14:00:00 14.2 6 Noroeste 13 Noroeste 0 977.5 -0.7 44
2019-12-09 13:00:00 13.2 7 Oeste 13 Oeste 0 978.2 0.7 47
2019-12-09 12:00:00 11.9 5 Oeste 13 Oeste 0 978.4 1.3 63
2019-12-09 11:00:00 10.3 3 Sudoeste 10 Sudoeste 0 978.2 1.8 79
2019-12-09 10:00:00 7.3 6 Sur 12 Sudoeste 0 977.5 1.5 95
2019-12-09 09:00:00 7.3 5 Sur 12 Sudoeste 0 977.1 1.3 96
2019-12-09 08:00:00 8.2 6 Sur 10 Sudoeste 0 976.4 0.5 97
2019-12-09 07:00:00 8.8 5 Sudoeste 10 Oeste 0 976 0 97
2019-12-09 06:00:00 10 7 Oeste 11 Oeste 0 975.8 0.1 97
2019-12-09 05:00:00 10.7 6 Noroeste 15 Noroeste 0 975.9 0.3 97
2019-12-09 04:00:00 11.4 9 Noroeste 18 Noroeste 0 976 0.4 97
2019-12-09 03:00:00 11.9 9 Noroeste 17 Noroeste 0 975.7 0 97
2019-12-09 02:00:00 12.2 10 Noroeste 17 Oeste 0 975.6 0.5 97
2019-12-09 01:00:00 12.7 6 Noroeste 16 Norte 0 975.6 0.7 97
2019-12-09 00:00:00 12.8 8 Norte 16 Norte 0 975.7 0.9 96
2019-12-08 23:00:00 13.3 8 Sudoeste 19 Oeste 0 975.1 0.4 95
2019-12-08 22:00:00 13 5 Oeste 10 Oeste 0 974.9 0.9 96
2019-12-08 21:00:00 13.1 4 Oeste 10 Oeste 0.4 974.8 1.1 96
2019-12-08 20:00:00 12.9 3 Noroeste 5 Oeste 0.2 974.7 1.1 96
2019-12-08 19:00:00 13.1 0 Calma 14 Oeste 0 974 0.8 94
2019-12-08 18:00:00 13.3 8 Oeste 13 Oeste 0 973.7 0.5 94
2019-12-08 17:00:00 13.2 8 Noroeste 22 Oeste 0 973.6 0 93
2019-12-08 16:00:00 14 12 Oeste 20 Noroeste 0 973.2 -1 87
2019-12-08 15:00:00 14.4 11 Oeste 21 Oeste 0 973.2 -1.3 83
2019-12-08 14:00:00 13.1 7 Noroeste 13 Noroeste 0 973.6 -0.6 87
2019-12-08 13:00:00 11.4 5 Noroeste 12 Noroeste 0 974.2 0.2 87
2019-12-08 12:00:00 11 4 Noroeste 7 Noroeste 0 974.5 1 84
2019-12-08 11:00:00 9 5 Sudoeste 10 Sudoeste 0 974.2 0.8 88
2019-12-08 10:00:00 6.4 5 Sudoeste 9 Sur 0 974 1.3 86
2019-12-08 09:00:00 4.9 6 Sudoeste 10 Sudoeste 0 973.5 1 88
2019-12-08 08:00:00 4.3 5 Sudoeste 10 Sudoeste 0 973.4 0.6 90
2019-12-08 07:00:00 4.5 6 Sudoeste 12 Sudeste 0 972.7 -0.2 91
2019-12-08 06:00:00 4.4 7 Sudoeste 11 Sur 0 972.5 -0.5 93
2019-12-08 05:00:00 5 5 Sur 12 Sudoeste 0 972.8 -0.4 92
2019-12-08 04:00:00 5.4 7 Sur 12 Sudoeste 0 972.9 -0.6 93
2019-12-08 03:00:00 5.4 7 Sudoeste 11 Sudoeste 0 973 -0.4 93
2019-12-08 02:00:00 5.5 6 Sur 10 Sudoeste 0 973.2 -0.1 93
2019-12-08 01:00:00 5.4 7 Sudoeste 9 Sudoeste 0 973.5 0.6 92
2019-12-08 00:00:00 5.9 6 Sur 9 Sudoeste 0 973.4 0.7 90
2019-12-07 23:00:00 6.4 8 Sur 12 Sudoeste 0 973.3 0.9 90
2019-12-07 22:00:00 6.7 6 Sur 10 Sudeste 0 972.9 1 88
2019-12-07 21:00:00 7.4 6 Sur 10 Sur 0 972.7 1 87
2019-12-07 20:00:00 8.7 6 Sur 11 Sudoeste 0 972.4 1 84
2019-12-07 19:00:00 10.7 6 Sur 9 Sur 0 971.9 0.6 75
2019-12-07 18:00:00 13.3 2 Noroeste 8 Norte 0 971.7 0.4 67
2019-12-07 17:00:00 13.9 6 Norte 15 Nordeste 0 971.4 -0.4 61
2019-12-07 16:00:00 14 7 Norte 13 Norte 0 971.3 -1.2 64
2019-12-07 15:00:00 13.8 6 Nordeste 15 Norte 0 971.3 -1.6 64
2019-12-07 14:00:00 13.4 6 Norte 13 Noroeste 0 971.8 -1.1 64
2019-12-07 13:00:00 12 2 Norte 9 Nordeste 0 972.5 0.3 71
2019-12-07 12:00:00 11.4 2 Este 15 Nordeste 0 972.9 1.4 73
2019-12-07 11:00:00 9.7 9 Norte 13 Norte 0 972.9 1.5 80
2019-12-07 10:00:00 5.5 3 Sur 11 Este 0 972.2 1.2 92
2019-12-07 09:00:00 3.4 4 Sur 11 Sudoeste 0 971.5 0.9 94
2019-12-07 08:00:00 3.7 6 Sur 9 Sudoeste 0 971.4 0.9 93
2019-12-07 07:00:00 4.2 4 Sur 10 Sudeste 0 971 0.2 93
2019-12-07 06:00:00 4 5 Sur 8 Sur 0 970.6 -0.1 92
2019-12-07 05:00:00 4.4 7 Sur 10 Sudoeste 0 970.5 -0.1 92
2019-12-07 04:00:00 4.5 3 Sudoeste 9 Sudoeste 0 970.8 -0.1 92
2019-12-07 03:00:00 4.4 6 Sur 9 Sudoeste 0 970.7 -0.4 91
2019-12-07 02:00:00 4.6 5 Sudoeste 8 Sudoeste 0 970.6 -0.3 91
2019-12-07 01:00:00 4.9 6 Sur 9 Sur 0 970.9 -0.1 90
2019-12-07 00:00:00 5.3 7 Sudoeste 10 Sudoeste 0 971.1 1.1 89
2019-12-06 23:00:00 5.7 6 Sur 9 Sudoeste 0 970.9 1.4 87
2019-12-06 22:00:00 6.4 6 Sur 9 Sudoeste 0 971 1.8 86
2019-12-06 21:00:00 7.5 7 Sur 10 Sur 0 970 1.2 83
2019-12-06 20:00:00 9 5 Sur 6 Sur 0 969.5 0.9 77
2019-12-06 19:00:00 11.3 4 Este 9 Este 0 969.2 0.6 68
2019-12-06 18:00:00 13.8 5 Este 22 Nordeste 0 968.8 -0.3 60
2019-12-06 17:00:00 14.4 14 Nordeste 26 Este 0 968.6 -1.1 55
2019-12-06 16:00:00 14.6 12 Nordeste 29 Nordeste 0 968.6 -1.6 55
2019-12-06 15:00:00 14.1 15 Nordeste 31 Norte 0 969.1 -1.6 61
2019-12-06 14:00:00 13.7 14 Nordeste 29 Nordeste 0 969.7 -0.8 64
2019-12-06 13:00:00 12.9 15 Este 28 Este 0 970.2 0.1 65
2019-12-06 12:00:00 11.7 14 Nordeste 30 Nordeste 0 970.7 1.2 69
2019-12-06 11:00:00 10.6 12 Este 20 Este 0 970.5 1.3 74
2019-12-06 10:00:00 8.9 4 Este 21 Nordeste 0 970.1 1.7 79
2019-12-06 09:00:00 7.6 12 Nordeste 26 Nordeste 0 969.5 1.6 82
2019-12-06 08:00:00 7.8 8 Nordeste 24 Nordeste 0 969.2 1 82
2019-12-06 07:00:00 7.9 11 Este 26 Nordeste 0 968.4 0.2 83
2019-12-06 06:00:00 6.5 9 Este 19 Este 0 967.9 -0.1 90
2019-12-06 05:00:00 3.7 4 Este 12 Nordeste 0 968.2 0.4 91
2019-12-06 04:00:00 4.5 7 Sudoeste 12 Sudoeste 0 968.2 0.3 89
2019-12-06 03:00:00 5.4 6 Sur 14 Sur 0 968 0.6 88
2019-12-06 02:00:00 6 6 Sur 10 Oeste 0 967.8 0.2 86
2019-12-06 01:00:00 6.8 3 Norte 10 Sudoeste 0 967.9 0.5 85
2019-12-06 00:00:00 7 4 Sudeste 17 Este 0 967.4 0.5 84
2019-12-05 23:00:00 7.8 3 Sur 19 Nordeste 0 967.6 1.3 78
2019-12-05 22:00:00 9.2 11 Nordeste 18 Nordeste 0 967.4 1.9 75
2019-12-05 21:00:00 9.9 7 Nordeste 15 Nordeste 0 966.9 1.8 74
2019-12-05 20:00:00 10 3 Norte 16 Nordeste 0 966.3 1.9 73
2019-12-05 19:00:00 11.1 10 Nordeste 21 Nordeste 0 965.5 1 69
2019-12-05 18:00:00 12.3 11 Nordeste 30 Nordeste 0 965.1 0.5 64
2019-12-05 17:00:00 13.2 20 Nordeste 40 Nordeste 0 964.4 -0.6 61
2019-12-05 16:00:00 13.6 17 Nordeste 36 Nordeste 0 964.5 -0.9 59
2019-12-05 15:00:00 13 19 Nordeste 35 Nordeste 0 964.6 -1.4 60
2019-12-05 14:00:00 12.4 19 Nordeste 37 Nordeste 0 965 -0.3 61
2019-12-05 13:00:00 11.8 18 Nordeste 32 Nordeste 0 965.4 0.6 61
2019-12-05 12:00:00 10.8 9 Nordeste 17 Nordeste 0 966 1.9 65
2019-12-05 11:00:00 8.9 7 Norte 23 Norte 0 965.3 1.9 69
2019-12-05 10:00:00 7.9 10 Norte 19 Nordeste 0 964.8 2.5 72
2019-12-05 09:00:00 6.8 14 Norte 26 Nordeste 0 964.1 2.1 75
2019-12-05 08:00:00 3.7 6 Sudoeste 13 Sudoeste 0 963.4 1.4 91
2019-12-05 07:00:00 4.3 6 Sudoeste 10 Sudoeste 0 962.3 0.7 90
2019-12-05 06:00:00 4.5 7 Sudoeste 11 Sudoeste 0 962 0.8 91
2019-12-05 05:00:00 3.8 8 Sur 10 Sudoeste 0 962 0.6 91
2019-12-05 04:00:00 4 6 Sudoeste 9 Sur 0 961.6 0.5 90
2019-12-05 03:00:00 4.7 7 Sur 11 Sur 0 961.2 0.6 88
2019-12-05 02:00:00 5.3 5 Sur 8 Sudoeste 0 961.4 1.4 87
2019-12-05 01:00:00 6.5 5 Sur 11 Oeste 0 961.1 1.3 83
2019-12-05 00:00:00 7.8 7 Oeste 12 Oeste 0 960.6 1.3 77
2019-12-04 23:00:00 8.3 8 Noroeste 14 Noroeste 0 960 1.3 77
2019-12-04 22:00:00 9.3 9 Nordeste 13 Nordeste 0 959.8 1.5 71
2019-12-04 21:00:00 10 3 Noroeste 6 Norte 0 959.3 1.6 71
2019-12-04 20:00:00 10.3 3 Nordeste 12 Norte 0 958.7 1.3 69
2019-12-04 19:00:00 10.7 8 Norte 13 Norte 0 958.3 0.9 69
2019-12-04 18:00:00 11.4 7 Noroeste 17 Norte 0 957.7 0.3 63
2019-12-04 17:00:00 12.3 10 Norte 19 Norte 0 957.4 -0.7 59
2019-12-04 16:00:00 12.3 8 Norte 22 Nordeste 0 957.4 -1 59
2019-12-04 15:00:00 11.7 11 Nordeste 24 Nordeste 0 957.4 -1.6 60
2019-12-04 14:00:00 11 9 Nordeste 20 Norte 0 958.1 -0.9 65
2019-12-04 13:00:00 10.5 8 Norte 17 Norte 0 958.4 -0.4 71
2019-12-04 12:00:00 8.8 9 Norte 17 Norte 0 959 0.6 79
2019-12-04 11:00:00 6.5 2 Sudoeste 11 Sudoeste 0 959 0.9 87
2019-12-04 10:00:00 4.9 6 Sudoeste 12 Sudoeste 0 958.8 0.5 91
2019-12-04 09:00:00 3.8 4 Norte 12 Norte 0 958.4 -0.2 93
2019-12-04 08:00:00 4.7 3 Noroeste 8 Este 0 958.1 -0.8 89
2019-12-04 07:00:00 5.9 6 Este 16 Sudeste 0 958.3 -0.7 85
2019-12-04 06:00:00 4.8 3 Este 11 Noroeste 0 958.6 -1.3 91
2019-12-04 05:00:00 5.3 7 Sur 18 Este 0 958.9 -1.5 88
2019-12-04 04:00:00 5.5 10 Este 15 Este 0 959 -1.6 89
2019-12-04 03:00:00 4.3 10 Sur 15 Sudoeste 0 959.9 -1.1 89
2019-12-04 02:00:00 4 6 Este 26 Nordeste 0 960.4 -0.8 91
2019-12-04 01:00:00 3.7 6 Sudoeste 9 Sudoeste 0 960.6 -0.5 90
2019-12-04 00:00:00 3.6 5 Sudoeste 10 Sudoeste 0 961 0.1 89
2019-12-03 23:00:00 4.5 4 Este 11 Sudoeste 0 961.2 0.4 87
2019-12-03 22:00:00 4.5 5 Sudoeste 10 Sudeste 0 961.1 0.5 87
2019-12-03 21:00:00 5.2 6 Sudoeste 9 Sur 0 960.9 0.3 85
2019-12-03 20:00:00 6.7 6 Sur 10 Sur 0 960.8 0.4 80
2019-12-03 19:00:00 8.7 3 Este 10 Norte 0 960.6 -0.1 71
2019-12-03 18:00:00 10.6 5 Norte 15 Nordeste 0 960.6 -0.5 62
2019-12-03 17:00:00 11.2 8 Norte 21 Norte 0 960.4 -1.6 59
2019-12-03 16:00:00 11.3 12 Norte 23 Norte 0 960.7 -2 58
2019-12-03 15:00:00 11.3 10 Norte 22 Norte 0 961.1 -2.2 58
2019-12-03 14:00:00 10.8 9 Norte 20 Norte 0 962 -1.6 58
2019-12-03 13:00:00 10 9 Noroeste 16 Noroeste 0 962.7 -0.9 62
2019-12-03 12:00:00 8.4 12 Norte 19 Norte 0 963.3 -0.4 66
2019-12-03 11:00:00 7.1 11 Norte 20 Norte 0 963.6 0.2 67
2019-12-03 10:00:00 5.5 5 Noroeste 25 Norte 0 963.6 0.4 76
2019-12-03 09:00:00 4.4 7 Norte 20 Norte 0 963.7 0.6 80
2019-12-03 08:00:00 4.9 7 Norte 20 Norte 0 963.4 0 78
2019-12-03 07:00:00 5.1 7 Norte 20 Nordeste 0 963.2 -0.7 78
2019-12-03 06:00:00 5.1 9 Norte 21 Norte 0 963.1 -0.9 81
2019-12-03 05:00:00 6 8 Nordeste 18 Nordeste 0 963.4 -0.8 76
2019-12-03 04:00:00 6 6 Noroeste 13 Norte 0 963.9 -0.4 80
2019-12-03 03:00:00 6.7 6 Norte 14 Nordeste 0 964 -0.1 77
2019-12-03 02:00:00 7.4 3 Norte 22 Nordeste 0 964.2 0.2 76
2019-12-03 01:00:00 8.4 12 Nordeste 33 Nordeste 0 964.3 0.8 72
2019-12-03 00:00:00 9.3 14 Nordeste 28 Nordeste 0 964.1 0.8 70
2019-12-02 23:00:00 9.4 13 Nordeste 38 Nordeste 0 964 1.2 70
2019-12-02 22:00:00 10.2 21 Nordeste 40 Nordeste 0 963.5 1 66
2019-12-02 21:00:00 10.6 21 Nordeste 35 Norte 0 963.3 1.3 63
2019-12-02 20:00:00 11 17 Nordeste 36 Nordeste 0 962.8 1 62
2019-12-02 19:00:00 11.4 20 Nordeste 39 Nordeste 0 962.5 1.2 58
2019-12-02 18:00:00 11.4 19 Nordeste 41 Nordeste 0 962 0.5 58
2019-12-02 17:00:00 12 19 Nordeste 42 Nordeste 0 961.8 0 59
2019-12-02 16:00:00 12.5 25 Nordeste 48 Nordeste 0 961.3 -1 58
2019-12-02 15:00:00 12.1 26 Nordeste 45 Nordeste 0 961.5 -1.1 59
2019-12-02 14:00:00 11.8 26 Nordeste 52 Nordeste 0 961.8 -0.4 59
2019-12-02 13:00:00 11.3 22 Nordeste 49 Norte 0 962.3 0.6 62
2019-12-02 12:00:00 10.5 19 Norte 43 Norte 0 962.6 1.5 67
2019-12-02 11:00:00 9.6 22 Norte 39 Norte 0 962.2 1.9 69
2019-12-02 10:00:00 8.6 16 Norte 39 Nordeste 0 961.7 1.9 75
2019-12-02 09:00:00 8.1 19 Nordeste 35 Nordeste 0 961.1 1.5 77
2019-12-02 08:00:00 8.6 20 Nordeste 44 Nordeste 0 960.3 0.7 77
2019-12-02 07:00:00 8.6 18 Norte 33 Nordeste 0 959.8 0.5 81
2019-12-02 06:00:00 8.5 23 Nordeste 51 Norte 0 959.6 0.2 81
2019-12-02 05:00:00 8.3 18 Norte 35 Norte 0.2 959.6 0.3 86
2019-12-02 04:00:00 7.2 11 Norte 31 Noroeste 0.2 959.3 -0.1 92
2019-12-02 03:00:00 7.2 10 Noroeste 23 Norte 0 959.4 0 91
2019-12-02 02:00:00 7.4 8 Noroeste 14 Noroeste 0 959.3 -0.1 90
2019-12-02 01:00:00 7.3 5 Noroeste 11 Noroeste 0 959.4 0.5 90
2019-12-02 00:00:00 7.8 6 Noroeste 17 Noroeste 0 959.4 0.7 89
2019-12-01 23:00:00 7.6 8 Noroeste 15 Norte 0 959.4 1.1 95
2019-12-01 22:00:00 7.7 8 Noroeste 15 Noroeste 0 958.9 1.1 96
2019-12-01 21:00:00 8.2 10 Noroeste 22 Norte 0 958.7 1.5 93
2019-12-01 20:00:00 8.5 8 Norte 19 Nordeste 0.2 958.3 2.1 91
2019-12-01 19:00:00 9.3 14 Nordeste 24 Nordeste 0.6 957.8 1.7 93
2019-12-01 18:00:00 9.4 12 Nordeste 29 Nordeste 1.6 957.2 0.9 94
2019-12-01 17:00:00 10.7 7 Noroeste 22 Oeste 0.2 956.2 -0.9 92
2019-12-01 16:00:00 11.7 11 Sudoeste 29 Sudoeste 0 956.1 -2 82
2019-12-01 15:00:00 12.2 14 Sudoeste 31 Sudoeste 0 956.3 -2.7 77
2019-12-01 14:00:00 11.8 12 Sudoeste 21 Sudoeste 0 957.1 -2.1 77
2019-12-01 13:00:00 11.2 15 Sudoeste 33 Oeste 0 958.1 -0.9 84
2019-12-01 12:00:00 12.1 15 Oeste 35 Oeste 0 959 0.2 79
2019-12-01 11:00:00 10.5 16 Oeste 32 Oeste 0 959.2 0.5 83
2019-12-01 10:00:00 10.5 16 Sudoeste 37 Oeste 0 959 -0.1 86
2019-12-01 09:00:00 10.2 14 Sudoeste 32 Sudoeste 0.6 958.8 -1 88
2019-12-01 08:00:00 10.1 14 Sudoeste 39 Sudoeste 0.2 958.7 -2 90
2019-12-01 07:00:00 10.2 13 Sudoeste 30 Sudoeste 0 959.1 -2.3 87
2019-12-01 06:00:00 10 19 Sudoeste 36 Sudoeste 0.2 959.8 -2.7 87
2019-12-01 05:00:00 10 15 Sudoeste 38 Sudoeste 0 960.7 -2.3 89
2019-12-01 04:00:00 10.3 15 Sudoeste 31 Sudoeste 0 961.4 -2.4 86
2019-12-01 03:00:00 10.5 12 Sudoeste 35 Sudoeste 0 962.5 -2.2 83
2019-12-01 02:00:00 10.6 18 Sudoeste 32 Sudoeste 0 963 -2.1 85
2019-12-01 01:00:00 10.2 14 Sudoeste 28 Sudoeste 0 963.8 -1.6 86
2019-12-01 00:00:00 10 12 Sudoeste 20 Sudoeste 0 964.7 -0.8 88
2019-11-30 23:00:00 9.4 10 Sudoeste 23 Oeste 0 965.1 -0.3 87
2019-11-30 22:00:00 9.9 13 Oeste 30 Sudoeste 0 965.4 0.1 90
2019-11-30 21:00:00 10.6 15 Oeste 33 Sudoeste 0 965.5 -0.2 89
2019-11-30 20:00:00 11.2 15 Oeste 30 Oeste 0 965.4 0.1 88
2019-11-30 19:00:00 11.7 18 Oeste 30 Sudoeste 0.2 965.3 0.2 89
2019-11-30 18:00:00 11.7 13 Oeste 35 Oeste 0.4 965.7 -0.2 94
2019-11-30 17:00:00 12.5 23 Oeste 42 Noroeste 1.8 965.3 -1.4 93
2019-11-30 16:00:00 14.4 13 Sudoeste 30 Sudoeste 0.8 965.1 -2.2 89
2019-11-30 15:00:00 14.1 10 Sudoeste 32 Sudoeste 0.4 965.9 -2.2 92
2019-11-30 14:00:00 14.5 15 Sudoeste 42 Sudoeste 0 966.7 -1.6 90
2019-11-30 13:00:00 15.7 21 Sudoeste 46 Sudoeste 0 967.3 -1.2 78
2019-11-30 12:00:00 15.3 19 Sudoeste 47 Sudoeste 0 968.1 -0.3 80
2019-11-30 11:00:00 14.4 14 Sur 30 Sudoeste 0 968.3 -0.1 84
2019-11-30 10:00:00 13.7 9 Sudoeste 18 Sudoeste 0 968.5 -0.2 86
2019-11-30 09:00:00 13.4 9 Sur 21 Sudoeste 0 968.4 -0.2 85
2019-11-30 08:00:00 13.2 10 Sur 19 Sudoeste 0 968.4 -0.7 82
2019-11-30 07:00:00 12.7 5 Sudoeste 16 Sur 0 968.7 -0.8 85
2019-11-30 06:00:00 12.9 12 Sur 19 Sudoeste 0 968.6 -0.8 82
2019-11-30 05:00:00 13.2 9 Sudoeste 18 Sur 0 969.1 -0.3 84
2019-11-30 04:00:00 13.6 8 Sur 23 Sudoeste 0 969.5 0 83
2019-11-30 03:00:00 13.3 9 Sudoeste 25 Sudoeste 0 969.4 -0.7 85
2019-11-30 02:00:00 13.5 14 Sudoeste 30 Sudoeste 0 969.4 -0.6 83
2019-11-30 01:00:00 13.9 13 Sudoeste 27 Sudoeste 0 969.5 -0.3 85
2019-11-30 00:00:00 14.2 11 Sudoeste 24 Sudoeste 0 970.1 0.7 86
2019-11-29 23:00:00 14.5 11 Sudoeste 23 Sudoeste 0 970 0.8 85
2019-11-29 22:00:00 14.6 9 Sudoeste 17 Sudoeste 0 969.8 0.7 86
2019-11-29 21:00:00 14.2 8 Sur 14 Sur 0 969.4 0.4 86
2019-11-29 20:00:00 14.5 6 Sudoeste 19 Sur 0 969.2 0.6 84
2019-11-29 19:00:00 15 8 Sudoeste 23 Sudoeste 0 969.1 0.7 83
2019-11-29 18:00:00 15.8 9 Sudoeste 27 Sudoeste 0 969 0.1 79
2019-11-29 17:00:00 16.2 12 Sudoeste 22 Sudoeste 0 968.6 -0.7 78
2019-11-29 16:00:00 16.3 10 Sudoeste 28 Sudoeste 0 968.4 -1.3 77
2019-11-29 15:00:00 16.2 16 Sudoeste 32 Sudoeste 0 968.9 -1 77
2019-11-29 14:00:00 16.5 13 Sudoeste 28 Sudoeste 0 969.3 0 77
2019-11-29 13:00:00 15.8 17 Sudoeste 32 Sudoeste 0 969.7 0.8 79
2019-11-29 12:00:00 16 14 Sudoeste 31 Sudoeste 0 969.9 1.4 77
2019-11-29 11:00:00 15.2 14 Sudoeste 29 Sudoeste 0 969.3 1.2 80
2019-11-29 10:00:00 14.5 13 Sur 29 Sur 0 968.9 1.4 82
2019-11-29 09:00:00 13.9 9 Sudoeste 22 Sudoeste 0 968.5 1.1 85
2019-11-29 08:00:00 14 12 Sudoeste 24 Sudoeste 0 968.1 1.1 85
2019-11-29 07:00:00 13.8 12 Sudoeste 28 Sudoeste 0 967.5 0.7 85
2019-11-29 06:00:00 13.8 8 Sudoeste 29 Sudoeste 0 967.4 1 84
2019-11-29 05:00:00 14 11 Sudoeste 31 Sudoeste 0 967 0.1 85
2019-11-29 04:00:00 13.8 14 Sudoeste 31 Sudoeste 0 966.8 0.2 88
2019-11-29 03:00:00 13.7 18 Sudoeste 34 Sudoeste 0 966.4 -0.2 87
2019-11-29 02:00:00 13.9 14 Sudoeste 31 Sudoeste 0 966.9 0.5 88
2019-11-29 01:00:00 14 11 Sudoeste 26 Sudoeste 0 966.6 0.2 86
2019-11-29 00:00:00 14 14 Sudoeste 37 Sudoeste 0 966.6 0.5 86
2019-11-28 23:00:00 14 20 Sudoeste 35 Oeste 0 966.4 0.9 87
2019-11-28 22:00:00 13.9 16 Sudoeste 36 Sudoeste 0 966.4 1 86
2019-11-28 21:00:00 14 14 Sudoeste 28 Sudoeste 0 966.1 1 86
2019-11-28 20:00:00 14.3 14 Sudoeste 28 Sudoeste 0 965.5 0.3 81
2019-11-28 19:00:00 14.3 12 Sudoeste 29 Sudoeste 0 965.4 0.4 80
2019-11-28 18:00:00 15 17 Sudoeste 35 Sudoeste 0 965.1 -0.1 76
2019-11-28 17:00:00 15.3 18 Sudoeste 35 Sudoeste 0 965.2 -0.7 74
2019-11-28 16:00:00 15.9 17 Sudoeste 36 Sudoeste 0 965 -1.3 71
2019-11-28 15:00:00 14.9 20 Sudoeste 38 Sudoeste 0 965.2 -1.4 75
2019-11-28 14:00:00 14.7 14 Sudoeste 33 Sudoeste 0 965.9 -0.5 77
2019-11-28 13:00:00 14 13 Sudoeste 36 Sudoeste 0 966.3 0.2 82
2019-11-28 12:00:00 14 16 Sur 31 Sudoeste 0 966.6 1.1 78
2019-11-28 11:00:00 13.2 13 Sur 27 Sur 0 966.4 0.9 85
2019-11-28 10:00:00 11.8 10 Sur 21 Sur 0 966.1 1.5 91
2019-11-28 09:00:00 11.4 8 Sur 25 Sur 0 965.5 1.1 91
2019-11-28 08:00:00 11.2 14 Sur 21 Sur 0 965.5 0.9 93
2019-11-28 07:00:00 11.4 11 Sur 22 Sur 0 964.6 -0.2 88
2019-11-28 06:00:00 11.1 11 Sur 22 Sudoeste 0 964.4 -0.3 87
2019-11-28 05:00:00 11.2 10 Sudoeste 17 Oeste 0 964.6 -0.1 87
2019-11-28 04:00:00 11.6 8 Sudoeste 20 Sudoeste 0 964.8 0 86
2019-11-28 03:00:00 11.4 14 Sudoeste 23 Sudoeste 0 964.7 -0.1 87
2019-11-28 02:00:00 11.6 11 Sudoeste 23 Sudoeste 0 964.7 -0.1 87
2019-11-28 01:00:00 11.9 15 Sudoeste 25 Sudoeste 0 964.8 0.4 84
2019-11-28 00:00:00 11.3 11 Sudoeste 21 Sudoeste 0 964.8 0.9 86
2019-11-27 23:00:00 11.1 8 Sudoeste 17 Sudoeste 0 964.8 1.1 85
2019-11-27 22:00:00 11.8 7 Sudoeste 24 Sudoeste 0 964.4 0.9 79
2019-11-27 21:00:00 12.1 13 Sudoeste 22 Sudoeste 0 963.9 1.2 80
2019-11-27 20:00:00 12.4 12 Sudoeste 24 Sudoeste 0 963.7 1 81
2019-11-27 19:00:00 12.9 14 Sudoeste 26 Oeste 0.2 963.5 0.9 79
2019-11-27 18:00:00 13 10 Sudoeste 28 Sudoeste 0 962.7 0.2 76
2019-11-27 17:00:00 13.7 15 Sudoeste 28 Sudoeste 0 962.7 -0.3 68
2019-11-27 16:00:00 13.2 14 Sudoeste 38 Sudoeste 0 962.6 -0.9 81
2019-11-27 15:00:00 14.2 17 Oeste 36 Sudoeste 0 962.5 -1.3 66
2019-11-27 14:00:00 14.4 20 Sudoeste 37 Sudoeste 0 963 -0.9 66
2019-11-27 06:00:00 11 8 Sudoeste 25 Sudoeste 0 961 0 87
2019-11-27 05:00:00 10.7 8 Sudoeste 26 Sudoeste 0 961.1 0.4 85
2019-11-27 04:00:00 11.1 12 Sudoeste 26 Oeste 0 961.1 0.6 87
2019-11-27 03:00:00 11.4 14 Oeste 33 Oeste 0 961 0.6 88
2019-11-27 02:00:00 12.2 17 Oeste 38 Sudoeste 0 960.7 0.7 91
2019-11-27 01:00:00 12.8 18 Sudoeste 34 Oeste 0 960.5 0.5 90
2019-11-27 00:00:00 12.9 15 Sudoeste 31 Oeste 0.8 960.4 0.4 90
2019-11-26 23:00:00 13.6 24 Sudoeste 46 Sudoeste 0 960 0.2 88
2019-11-26 22:00:00 14.1 22 Sudoeste 46 Sudoeste 0 960 0.7 81
2019-11-26 21:00:00 14.2 21 Sudoeste 37 Sudoeste 0 960 0.6 80
2019-11-26 20:00:00 14.5 19 Sudoeste 40 Sudoeste 0 959.8 1 82
2019-11-26 19:00:00 14.9 15 Sudoeste 31 Sudoeste 0 959.3 0.7 84
2019-11-26 18:00:00 15.2 9 Sudoeste 41 Sudoeste 0.2 959.4 -0.3 84
2019-11-26 17:00:00 15.6 17 Sudoeste 47 Sur 0 958.8 -1.1 88
2019-11-26 16:00:00 15.3 22 Sur 48 Sudoeste 0.2 958.6 -2 88
2019-11-26 15:00:00 15.8 22 Sur 50 Sur 0 959.7 -1.7 84
2019-11-26 14:00:00 15.2 23 Sur 52 Sur 0.4 959.9 -2.1 87
2019-11-26 13:00:00 15.1 23 Sur 53 Sur 0 960.6 -1.6 85
2019-11-26 12:00:00 15.3 26 Sur 44 Sur 0 961.4 -0.7 86
2019-11-26 11:00:00 15.1 19 Sur 42 Sudoeste 0.4 962 -0.4 83
2019-11-26 10:00:00 15.8 20 Sudoeste 45 Sudoeste 0 962.2 -0.2 78
2019-11-26 09:00:00 15 16 Sur 41 Sur 0 962.1 -0.6 80
2019-11-26 08:00:00 15 11 Sudoeste 28 Sudoeste 0 962.4 -0.6 80
2019-11-26 07:00:00 14.9 12 Sudoeste 26 Sudoeste 0 962.4 -1 81
2019-11-26 06:00:00 14.9 12 Sudoeste 32 Sur 0 962.7 -1 86
2019-11-26 05:00:00 14 8 Sur 19 Sur 0 963 -1.1 93
2019-11-26 04:00:00 13.8 11 Sur 20 Sur 0 963.4 -1.4 92
2019-11-26 03:00:00 13.4 10 Sur 20 Sur 0 963.7 -1.6 92
2019-11-26 02:00:00 13.5 10 Sudeste 18 Sudeste 0 964.1 -1.2 88
2019-11-26 01:00:00 13.1 6 Sur 13 Sur 0 964.8 -0.5 85
2019-11-26 00:00:00 12.8 9 Sur 16 Sudoeste 0 965.3 -0.1 86
2019-11-25 23:00:00 12.6 9 Sur 16 Sudoeste 0 965.3 0.2 84
2019-11-25 22:00:00 13.5 10 Sudoeste 23 Sudoeste 0 965.3 0.4 84
2019-11-25 21:00:00 14.5 12 Sudoeste 23 Sudoeste 0 965.4 0.8 81
2019-11-25 20:00:00 14.6 5 Sudoeste 9 Sudoeste 0 965.1 0.8 81
2019-11-25 19:00:00 15 5 Sudoeste 21 Sudoeste 0 964.9 0.9 78
2019-11-25 18:00:00 15.5 12 Oeste 28 Oeste 0 964.6 0.3 75
2019-11-25 17:00:00 16.2 15 Oeste 27 Sudoeste 0 964.3 -0.2 71
2019-11-25 16:00:00 16.5 15 Oeste 34 Noroeste 0 964 -0.8 70
2019-11-25 15:00:00 16.1 15 Oeste 27 Sudoeste 0 964.3 -0.6 76
2019-11-25 14:00:00 15.6 11 Oeste 23 Sudoeste 0 964.5 0 80
2019-11-25 13:00:00 14.7 13 Oeste 29 Sudoeste 0 964.8 0.8 89
2019-11-25 12:00:00 14.8 12 Sudoeste 37 Oeste 0 964.9 1.4 82
2019-11-25 11:00:00 14.8 13 Sudoeste 28 Oeste 0 964.5 1.6 83
2019-11-25 10:00:00 13.5 10 Oeste 25 Sudoeste 0 964 1.3 86
2019-11-25 09:00:00 13.1 12 Oeste 29 Oeste 0 963.5 1.5 91
2019-11-25 08:00:00 13.5 15 Oeste 34 Oeste 0 962.9 0.9 92
2019-11-25 07:00:00 14.1 16 Oeste 31 Oeste 0.4 962.7 0.6 95
2019-11-25 06:00:00 14.2 14 Sudoeste 31 Sudoeste 0.2 962 0.1 94
2019-11-25 05:00:00 14.1 12 Sudoeste 28 Sudoeste 0.4 962 -0.5 94
2019-11-25 04:00:00 14.2 18 Sudoeste 40 Sudoeste 0.2 962.1 -0.8 92
2019-11-25 03:00:00 14.1 22 Sudoeste 45 Sudoeste 0.2 961.9 -1.3 91
2019-11-25 02:00:00 14 20 Sudoeste 44 Sudoeste 0 962.5 -1.2 89
2019-11-25 01:00:00 13.8 23 Sudoeste 55 Sudoeste 0 962.9 -0.7 90
2019-11-25 00:00:00 13.5 22 Sudoeste 45 Sudoeste 0 963.2 -0.5 88
2019-11-24 23:00:00 13.1 15 Sudoeste 34 Sur 0 963.7 -0.2 87
2019-11-24 22:00:00 12.6 12 Sur 37 Sudoeste 0 963.6 -0.3 86
2019-11-24 21:00:00 12.6 14 Sudoeste 28 Sudoeste 0 963.7 -0.2 83
2019-11-24 20:00:00 12.8 20 Sudoeste 36 Sudoeste 0 963.9 -0.3 83
2019-11-24 19:00:00 12.4 13 Sudoeste 23 Sur 0 963.9 -0.6 81
2019-11-24 18:00:00 12.5 10 Sudoeste 26 Sudoeste 0 963.9 -0.6 77
2019-11-24 17:00:00 13.2 9 Sudoeste 31 Oeste 0 964.2 -0.4 74
2019-11-24 16:00:00 13.1 15 Sudoeste 28 Sudoeste 0 964.5 -0.9 72
2019-11-24 15:00:00 13.3 14 Sudoeste 27 Oeste 0 964.5 -1.4 69
2019-11-24 14:00:00 13.4 14 Sudoeste 28 Sudoeste 0 964.6 -1.2 68
2019-11-24 13:00:00 12.7 10 Sudoeste 28 Oeste 0 965.4 0.3 72
2019-11-24 12:00:00 12.4 15 Sudoeste 29 Sudoeste 0 965.9 1.3 71
2019-11-24 11:00:00 11.7 10 Sudoeste 22 Oeste 0 965.8 1.4 75
2019-11-24 10:00:00 9.2 10 Sudoeste 19 Sudoeste 0 965.1 0.9 88
2019-11-24 09:00:00 7.4 8 Sudoeste 15 Sudoeste 0 964.6 0.7 93
2019-11-24 08:00:00 7.6 7 Sudoeste 21 Oeste 0 964.4 0.8 93
2019-11-24 07:00:00 7.5 10 Oeste 20 Oeste 0 964.2 0.8 94
2019-11-24 06:00:00 6.8 9 Sudoeste 15 Oeste 0 963.9 0.8 93
2019-11-24 05:00:00 7.6 6 Oeste 18 Oeste 0 963.6 0.4 91
2019-11-24 04:00:00 8.1 11 Oeste 24 Oeste 0 963.4 0 88
2019-11-24 03:00:00 8.2 15 Oeste 28 Oeste 0 963.1 -0.2 86
2019-11-24 02:00:00 8.2 13 Oeste 26 Oeste 0 963.2 0 83
2019-11-24 01:00:00 8 11 Oeste 24 Sudoeste 0 963.4 0.5 84
2019-11-24 00:00:00 8.3 13 Sudoeste 26 Oeste 0 963.3 0.8 83
2019-11-23 23:00:00 8.7 12 Oeste 32 Oeste 0 963.2 1.7 79
2019-11-23 22:00:00 8.7 15 Oeste 26 Oeste 0 962.9 2.1 79
2019-11-23 21:00:00 8.9 12 Oeste 28 Oeste 0 962.5 2.4 79
2019-11-23 20:00:00 9.4 19 Oeste 31 Oeste 0 961.5 2.6 75
2019-11-23 19:00:00 9.7 16 Oeste 32 Oeste 0 960.8 2.3 73
2019-11-23 18:00:00 10.5 19 Oeste 37 Oeste 0 960.1 1.8 69
2019-11-23 17:00:00 11.9 21 Oeste 35 Oeste 0 958.9 0.9 64
2019-11-23 16:00:00 12.4 17 Noroeste 41 Oeste 0 958.5 0.5 58
2019-11-23 15:00:00 12 22 Noroeste 40 Noroeste 0 958.3 0.9 58
2019-11-23 14:00:00 12.5 24 Noroeste 46 Oeste 0 958 1.6 60
2019-11-23 13:00:00 11.6 17 Noroeste 39 Noroeste 0 958 2.7 64
2019-11-23 12:00:00 10.9 21 Oeste 36 Oeste 0 957.4 3.2 71
2019-11-23 11:00:00 9.6 18 Oeste 38 Sudoeste 0 956.4 3.7 77
2019-11-23 10:00:00 8.8 18 Oeste 35 Oeste 0 955.3 3.7 79
2019-11-23 09:00:00 7.9 18 Oeste 37 Oeste 0 954.2 3.2 84
2019-11-23 08:00:00 8 19 Oeste 38 Oeste 0 952.7 2.3 84
2019-11-23 07:00:00 8.2 19 Oeste 42 Oeste 0 951.6 1.7 84
2019-11-23 06:00:00 8.5 23 Oeste 46 Oeste 0 951 1.9 84
2019-11-23 05:00:00 8.6 26 Oeste 51 Oeste 0 950.4 1.8 85
2019-11-23 04:00:00 9 28 Oeste 45 Oeste 0 949.9 1.9 83
2019-11-23 03:00:00 8.8 28 Oeste 54 Oeste 0 949.1 1.7 81
2019-11-23 02:00:00 9.1 18 Oeste 53 Oeste 0 948.6 2.3 90
2019-11-23 01:00:00 9.6 27 Oeste 58 Oeste 0.2 948 1.8 85
2019-11-23 00:00:00 10.2 27 Oeste 71 Oeste 0.2 947.4 2 87
2019-11-22 23:00:00 11.2 31 Oeste 64 Sudoeste 0.2 946.3 0.8 84
2019-11-22 22:00:00 11 29 Oeste 83 Oeste 0 946.2 1.3 84
2019-11-22 21:00:00 11.5 29 Sudoeste 74 Sudoeste 0 945.4 0.8 80
2019-11-22 20:00:00 11.5 27 Oeste 53 Sudoeste 0 945.5 2.6 81
2019-11-22 19:00:00 11.7 28 Oeste 54 Sudoeste 0.2 944.9 2.4 80
2019-11-22 18:00:00 11.5 31 Oeste 69 Oeste 0 944.6 2.1 87
2019-11-22 17:00:00 14.4 27 Oeste 57 Oeste 0 942.9 0.4 67
2019-11-22 16:00:00 14.5 37 Oeste 71 Oeste 0 942.5 -1 65
2019-11-22 15:00:00 15 31 Oeste 63 Oeste 0 942.5 -1.3 67
2019-11-22 14:00:00 15.1 29 Oeste 62 Sudoeste 0 942.5 -1.9 75
2019-11-22 13:00:00 15 19 Oeste 43 Oeste 2.6 943.5 -1.5 83
2019-11-22 12:00:00 14.5 15 Sudoeste 45 Sudoeste 1 943.8 -2.5 91
2019-11-22 11:00:00 13.6 17 Sur 35 Sur 0.6 944.4 -3.1 92
2019-11-22 10:00:00 12.4 17 Sur 50 Sur 4.2 945 -3.1 92
2019-11-22 09:00:00 11.8 18 Sur 47 Sur 3.8 946.3 -3 92
2019-11-22 08:00:00 11.5 16 Sur 46 Sur 2.4 947.5 -3.1 92
2019-11-22 07:00:00 11.3 16 Sur 40 Sur 0.8 948.1 -3.5 91
2019-11-22 06:00:00 11.1 18 Sur 44 Sur 1.6 949.3 -3.5 90
2019-11-22 05:00:00 10.9 16 Sur 31 Sur 0.2 950.6 -3.2 89
2019-11-22 04:00:00 10.7 15 Sur 32 Sur 0 951.6 -2.1 87
2019-11-22 03:00:00 10.8 8 Sur 17 Sudoeste 0 952.8 -1.4 83
2019-11-22 02:00:00 10.6 6 Sudoeste 13 Sudoeste 0 953.8 -1.1 83
2019-11-22 01:00:00 10.5 6 Sur 12 Sur 0 953.7 -1.3 84
2019-11-22 00:00:00 10.3 6 Sur 19 Sur 0 954.2 -0.9 88
2019-11-21 23:00:00 10.1 8 Sur 17 Sudeste 0 954.9 -0.3 90
2019-11-21 22:00:00 9.7 7 Sur 15 Sur 0 955 0 87
2019-11-21 21:00:00 10.1 9 Sur 15 Sur 0 955.1 0.1 85
2019-11-21 20:00:00 10.2 8 Sur 12 Sur 0 955.2 0.5 84
2019-11-21 19:00:00 11.2 7 Sudoeste 14 Sudoeste 0 955 0.3 79
2019-11-21 18:00:00 12.5 9 Sudoeste 17 Sur 0 955 -0.2 74
2019-11-21 17:00:00 13.2 6 Oeste 19 Oeste 0 954.7 -0.9 74
2019-11-21 16:00:00 14.2 7 Sudoeste 21 Sudoeste 0 954.7 -1.5 66
2019-11-21 15:00:00 13.6 12 Oeste 20 Oeste 0 955.2 -1.5 70
2019-11-21 14:00:00 13.6 9 Sudoeste 17 Sudoeste 0 955.6 -0.8 72
2019-11-21 13:00:00 12.6 8 Sudoeste 15 Sudoeste 0 956.2 0 77
2019-11-21 12:00:00 11.7 7 Sudoeste 15 Sudoeste 0 956.7 0.9 85
2019-11-21 11:00:00 11.2 4 Oeste 12 Sudoeste 0 956.4 1 89
2019-11-21 10:00:00 10 4 Oeste 11 Sur 0.2 956.2 0.9 94
2019-11-21 09:00:00 9.6 3 Sudoeste 17 Sudoeste 0.2 955.8 0.5 93
2019-11-21 08:00:00 9.6 10 Sudoeste 21 Sur 1.2 955.4 -0.1 92
2019-11-21 07:00:00 9.5 9 Sur 17 Sudoeste 0 955.3 -0.6 91
2019-11-21 06:00:00 9.5 9 Sudoeste 14 Sur 0.8 955.3 -0.9 93
2019-11-21 05:00:00 9.4 8 Sur 13 Sur 0.8 955.5 -0.8 94
2019-11-21 04:00:00 9.5 9 Sur 17 Sudoeste 0.2 955.9 -0.5 90
2019-11-21 03:00:00 8.9 9 Sur 17 Sudoeste 0 956.2 -0.5 90
2019-11-21 02:00:00 8.8 8 Sur 14 Sur 0 956.3 -0.4 91
2019-11-21 01:00:00 8.7 4 Sudoeste 15 Sudoeste 0 956.4 -0.1 92
2019-11-21 00:00:00 8.9 12 Sur 18 Sur 0 956.7 0.3 91
2019-11-20 23:00:00 9 10 Sur 17 Sur 0 956.7 0.4 90
2019-11-20 22:00:00 8.3 6 Sur 10 Sudeste 0 956.5 0.7 93
2019-11-20 21:00:00 8.8 3 Sudeste 24 Noroeste 0 956.4 0.7 92
2019-11-20 20:00:00 9.1 9 Sudoeste 23 Oeste 0 956.3 0.6 90
2019-11-20 19:00:00 9.5 4 Sudeste 9 Oeste 0 955.8 0 86
2019-11-20 18:00:00 10.2 7 Sudoeste 13 Sudoeste 0 955.7 -0.1 81
2019-11-20 17:00:00 10.6 6 Oeste 17 Oeste 0 955.7 -0.6 78
2019-11-20 16:00:00 10.4 13 Oeste 22 Sudoeste 0 955.8 -1 79
2019-11-20 15:00:00 9.3 12 Sur 22 Sudeste 0 955.8 -1.9 89
2019-11-20 14:00:00 8.3 11 Sur 28 Sudeste 0 956.3 -1.7 93
2019-11-20 13:00:00 8 17 Sudeste 37 Sudeste 0 956.8 -0.7 94
2019-11-20 12:00:00 7.8 15 Sudeste 25 Sudeste 0 957.7 0.3 92
2019-11-20 11:00:00 7.5 8 Sur 32 Sur 0 958 0.6 94
2019-11-20 10:00:00 7.1 18 Sur 35 Sudeste 0 957.5 -0.2 96
2019-11-20 09:00:00 6.9 22 Sur 41 Sur 0 957.4 -0.8 95
2019-11-20 08:00:00 7 17 Sudeste 32 Sur 0.2 957.4 -1.2 94
2019-11-20 07:00:00 7.3 9 Sur 24 Sur 1.6 957.7 -1.7 93
2019-11-20 06:00:00 7.9 11 Sur 22 Sudeste 1.4 958.2 -1.7 93
2019-11-20 05:00:00 8.1 8 Sur 21 Sudeste 1.2 958.6 -1.8 93
2019-11-20 04:00:00 7.4 9 Sur 25 Sudeste 0.8 959.4 -1.6 93
2019-11-20 03:00:00 7.4 13 Sur 29 Sudeste 0.2 959.9 -1.7 91
2019-11-20 02:00:00 8.5 9 Sudeste 21 Sudeste 0 960.4 -1.7 79
2019-11-20 01:00:00 8.8 7 Sudeste 17 Sur 0 961 -1.2 79
2019-11-20 00:00:00 9.1 8 Sur 16 Sur 0 961.6 -1.1 78
2019-11-19 23:00:00 9.4 9 Sur 22 Sur 0 962.1 -0.9 68
2019-11-19 22:00:00 9.2 8 Sur 15 Sudeste 0 962.2 -0.7 62
2019-11-19 21:00:00 9.1 5 Sur 10 Sudoeste 0 962.7 -0.3 65
2019-11-19 20:00:00 8.9 4 Sudoeste 8 Sudoeste 0 963 -0.1 83
2019-11-19 19:00:00 9.2 3 Sur 7 Noroeste 0 962.9 -0.4 81
2019-11-19 18:00:00 10.2 5 Noroeste 14 Noroeste 0 963 -0.8 77
2019-11-19 17:00:00 10.9 8 Noroeste 15 Oeste 0 963.1 -1.1 75
2019-11-19 16:00:00 11.1 8 Noroeste 17 Noroeste 0 963.3 -1.7 71
2019-11-19 15:00:00 11.1 9 Noroeste 21 Sur 0 963.8 -1.9 70
2019-11-19 14:00:00 11.6 10 Sur 18 Sudeste 0 964.2 -1.8 62
2019-11-19 13:00:00 11.6 8 Sur 18 Sur 0 965 -1 60
2019-11-19 12:00:00 10.8 9 Sur 17 Sur 0 965.7 0.1 62
2019-11-19 11:00:00 7.6 3 Noroeste 5 Sur 0 966 0.6 80
2019-11-19 10:00:00 5.4 3 Sudoeste 8 Sur 0 966 0.9 84
2019-11-19 09:00:00 3.8 4 Sur 10 Sudoeste 0 965.6 0.5 89
2019-11-19 08:00:00 3.7 5 Sur 10 Sudoeste 0 965.4 0 88
2019-11-19 07:00:00 3 5 Sur 10 Sur 0 965.1 -0.5 89
2019-11-19 06:00:00 2.6 8 Sur 10 Sudoeste 0 965.1 -0.7 90
2019-11-19 05:00:00 2.4 6 Sudoeste 9 Sudoeste 0 965.4 -0.4 89
2019-11-19 04:00:00 3.2 6 Sur 10 Sudoeste 0 965.6 -0.4 88
2019-11-19 03:00:00 3.2 8 Sudoeste 10 Sudoeste 0 965.8 -0.5 88
2019-11-19 02:00:00 3.6 7 Sudoeste 10 Sudoeste 0 965.8 -1 90
2019-11-19 01:00:00 4.2 6 Sudoeste 10 Sudoeste 0 966 -0.4 90
2019-11-19 00:00:00 4.4 6 Sur 9 Sur 0 966.3 0.1 89
2019-11-18 23:00:00 5.1 7 Sur 11 Sudeste 0 966.8 1.2 86
2019-11-18 22:00:00 5.8 6 Sudoeste 12 Sur 0 966.4 1.3 84
2019-11-18 21:00:00 7.5 6 Sudoeste 11 Sudoeste 0 966.2 1.5 77
2019-11-18 20:00:00 7.9 6 Sudoeste 13 Sur 0 965.6 1 74
2019-11-18 19:00:00 10.1 5 Oeste 14 Oeste 0 965.1 0.6 62
2019-11-18 18:00:00 11.9 9 Oeste 20 Noroeste 0 964.7 0 54
2019-11-18 17:00:00 13 9 Noroeste 22 Oeste 0 964.6 0 50
2019-11-18 16:00:00 13 13 Noroeste 23 Noroeste 0 964.5 -0.6 49
2019-11-18 15:00:00 12.4 9 Noroeste 23 Noroeste 0 964.7 -0.6 54
2019-11-18 14:00:00 11.7 8 Noroeste 18 Noroeste 0 964.6 -0.7 58
2019-11-18 13:00:00 10.9 10 Noroeste 18 Noroeste 0 965.1 0.2 64
2019-11-18 12:00:00 9.9 9 Noroeste 21 Noroeste 0 965.3 1.3 67
2019-11-18 11:00:00 8.3 14 Noroeste 22 Noroeste 0 965.3 1.9 72
2019-11-18 10:00:00 7.4 11 Noroeste 20 Noroeste 0 964.9 2 76
2019-11-18 09:00:00 4.5 3 Sudoeste 11 Oeste 0 964 1.7 88
2019-11-18 08:00:00 5.2 8 Oeste 14 Oeste 0 963.4 1.4 84
2019-11-18 07:00:00 5.2 8 Oeste 19 Oeste 0 962.9 1.4 84
2019-11-18 06:00:00 5.9 13 Oeste 22 Oeste 0 962.3 0.7 80
2019-11-18 05:00:00 5.7 12 Oeste 24 Oeste 0 962 0.3 81
2019-11-18 04:00:00 6 12 Oeste 26 Oeste 0 961.5 -0.1 81
2019-11-18 03:00:00 6.2 12 Oeste 24 Oeste 0 961.6 0 80
2019-11-18 02:00:00 6.6 13 Oeste 23 Oeste 0 961.7 0.4 80
2019-11-18 01:00:00 6.9 13 Oeste 25 Oeste 0 961.6 0.9 81
2019-11-18 00:00:00 7.6 13 Oeste 27 Oeste 0 961.6 1 81
2019-11-17 23:00:00 8.9 18 Oeste 35 Oeste 0 961.3 0.8 79
2019-11-17 22:00:00 9.9 22 Oeste 41 Oeste 0 960.7 0.2 79
2019-11-17 21:00:00 11.6 21 Oeste 45 Oeste 0.2 960.6 0 93
2019-11-17 20:00:00 11.8 25 Oeste 51 Oeste 0.8 960.5 -0.3 93
2019-11-17 19:00:00 12.2 27 Oeste 50 Oeste 0 960.5 -1 88
2019-11-17 18:00:00 12.8 24 Oeste 48 Oeste 0.2 960.6 -1.5 89
2019-11-17 17:00:00 12.8 14 Sudoeste 30 Oeste 2.8 960.8 -2.4 92
2019-11-17 16:00:00 13.4 18 Oeste 32 Oeste 0.2 961.5 -2.4 86
2019-11-17 15:00:00 14.4 17 Oeste 36 Oeste 0 962.1 -2.2 78
2019-11-17 14:00:00 13.6 19 Oeste 33 Oeste 0 963.2 -1.1 84
2019-11-17 13:00:00 12 13 Oeste 22 Sudoeste 0 963.9 -0.3 95
2019-11-17 12:00:00 11.2 4 Sudoeste 10 Sudoeste 0 964.3 0.5 97
2019-11-17 11:00:00 8.6 0 Calma 6 Norte 0.2 964.3 1 96
2019-11-17 10:00:00 8.2 2 Norte 6 Norte 0.6 964.2 0.8 96
2019-11-17 09:00:00 8 5 Norte 15 Sudoeste 0.2 963.8 0.3 95
2019-11-17 08:00:00 9.4 9 Sudoeste 19 Sudoeste 0 963.3 -0.8 93
2019-11-17 07:00:00 8 3 Oeste 14 Oeste 0 963.4 -1.3 95
2019-11-17 06:00:00 7.3 3 Norte 10 Sur 0 963.5 -1.5 95
2019-11-17 05:00:00 6.9 6 Este 13 Nordeste 0.4 964.1 -1.6 94
2019-11-17 04:00:00 7.4 5 Este 17 Sudoeste 0 964.7 -1.3 88
2019-11-17 03:00:00 7.6 9 Sudoeste 20 Sudoeste 0 965 -1.1 82
2019-11-17 02:00:00 7.5 12 Sudoeste 21 Sudoeste 0 965.7 -0.6 78
2019-11-17 01:00:00 7.7 12 Oeste 29 Oeste 0 966 -0.2 76
2019-11-17 00:00:00 7.5 13 Oeste 30 Oeste 0 966.1 -0.2 73
2019-11-16 23:00:00 7.2 12 Oeste 22 Oeste 0 966.3 0.2 71
2019-11-16 22:00:00 7.2 9 Sudoeste 20 Oeste 0 966.2 0.5 70
2019-11-16 21:00:00 7.6 11 Oeste 26 Oeste 0 966.3 1 68
2019-11-16 20:00:00 8.3 14 Oeste 30 Oeste 0 966.1 0.8 62
2019-11-16 19:00:00 9.4 12 Oeste 26 Oeste 0 965.7 0.5 55
2019-11-16 18:00:00 11.4 14 Oeste 26 Oeste 0 965.3 0.4 50
2019-11-16 17:00:00 11.6 15 Oeste 29 Noroeste 0 965.3 0.2 46
2019-11-16 16:00:00 11.7 16 Oeste 26 Oeste 0 965.2 -0.2 42
2019-11-16 15:00:00 11.4 13 Oeste 25 Oeste 0 964.9 -0.9 43
2019-11-16 14:00:00 11.2 12 Oeste 20 Noroeste 0 965.1 -0.4 47
2019-11-16 13:00:00 10 12 Noroeste 24 Noroeste 0 965.4 0.4 52
2019-11-16 12:00:00 8.5 11 Noroeste 21 Noroeste 0 965.8 1.7 58
2019-11-16 11:00:00 6.9 8 Noroeste 18 Oeste 0 965.5 2.5 64
2019-11-16 10:00:00 5.6 9 Noroeste 16 Noroeste 0 965 2.8 67
2019-11-16 09:00:00 2.4 7 Sudoeste 18 Oeste 0 964.1 2.4 78
2019-11-16 08:00:00 3.5 9 Noroeste 16 Noroeste 0 963 2.1 74
2019-11-16 07:00:00 3.4 9 Noroeste 19 Noroeste 0 962.2 1.7 75
2019-11-16 06:00:00 1.7 5 Sudoeste 11 Oeste 0 961.7 1.5 84
2019-11-16 05:00:00 2.3 0 Calma 13 Oeste 0 960.9 0.8 79
2019-11-16 04:00:00 3.3 6 Sudoeste 15 Oeste 0 960.5 0.7 76
2019-11-16 03:00:00 3.6 10 Oeste 24 Oeste 0 960.2 0.9 76
2019-11-16 02:00:00 4.1 5 Sudoeste 26 Oeste 0 960.1 1.1 74
2019-11-16 01:00:00 4.1 10 Oeste 22 Oeste 0 959.8 1.1 76
2019-11-16 00:00:00 4.5 11 Oeste 20 Sudoeste 0 959.3 1.1 74
2019-11-15 23:00:00 4.8 12 Oeste 19 Oeste 0 959 1.2 72
2019-11-15 22:00:00 5 9 Oeste 27 Oeste 0 958.7 1.3 70
2019-11-15 21:00:00 5.8 17 Oeste 38 Oeste 0 958.2 1.2 66
2019-11-15 20:00:00 6.7 16 Noroeste 31 Noroeste 0 957.8 1.3 59
2019-11-15 19:00:00 7.9 18 Oeste 38 Noroeste 0 957.4 1.2 54
2019-11-15 18:00:00 8.7 18 Noroeste 31 Noroeste 0 957 0.6 48
2019-11-15 17:00:00 9.6 19 Noroeste 36 Noroeste 0 956.5 -0.2 47
2019-11-15 16:00:00 10.7 22 Oeste 38 Noroeste 0 956.2 -1.3 44
2019-11-15 15:00:00 10.6 17 Noroeste 37 Noroeste 0 956.4 -1.8 44
2019-11-15 14:00:00 10 17 Noroeste 34 Noroeste 0 956.7 -1.3 47
2019-11-15 13:00:00 9.4 17 Oeste 32 Oeste 0 957.5 -0.3 50
2019-11-15 12:00:00 8.7 15 Noroeste 37 Noroeste 0 958.2 0.9 55
2019-11-15 11:00:00 7.3 18 Oeste 36 Noroeste 0 958 1.1 60
2019-11-15 10:00:00 5.9 20 Oeste 30 Oeste 0 957.8 1.3 67
2019-11-15 09:00:00 4.7 15 Oeste 26 Oeste 0 957.3 0.8 72
2019-11-15 08:00:00 4.6 15 Oeste 31 Oeste 0 956.9 0.4 74
2019-11-15 07:00:00 5.1 14 Oeste 28 Noroeste 0 956.5 -0.1 71
2019-11-15 06:00:00 5.4 14 Oeste 33 Oeste 0 956.5 -0.4 71
2019-11-15 05:00:00 5.3 19 Oeste 35 Oeste 0 956.5 -0.2 73
2019-11-15 04:00:00 5.5 19 Oeste 35 Oeste 0 956.6 -0.5 73
2019-11-15 03:00:00 5.9 18 Oeste 44 Oeste 0 956.9 0 75
2019-11-15 02:00:00 6.1 22 Oeste 44 Oeste 0 956.7 -0.5 76
2019-11-15 01:00:00 6.3 15 Oeste 41 Oeste 0 957.1 0.5 76
2019-11-15 00:00:00 6.5 21 Oeste 47 Oeste 0 956.9 0.4 76
2019-11-14 23:00:00 7.2 24 Oeste 45 Oeste 0 957.2 0.6 70
2019-11-14 22:00:00 7.6 22 Oeste 43 Oeste 0 956.6 0.3 69
2019-11-14 21:00:00 8.2 21 Oeste 41 Oeste 0 956.5 0.4 70
2019-11-14 20:00:00 8.6 20 Oeste 42 Oeste 0 956.6 1 78
2019-11-14 19:00:00 9.1 20 Oeste 39 Oeste 0 956.3 0.9 82
2019-11-14 18:00:00 -- -- -- -- -- -- -- -- --
2019-11-14 17:00:00 -- -- -- -- -- -- -- -- --
2019-11-14 16:00:00 -- -- -- -- -- -- -- -- --
2019-11-14 15:00:00 -- -- -- -- -- -- -- -- --
2019-11-14 14:00:00 -- -- -- -- -- -- -- -- --
2019-11-14 13:00:00 -- -- -- -- -- -- -- -- --
2019-11-14 12:00:00 -- -- -- -- -- -- -- -- --
2019-11-14 11:00:00 -- -- -- -- -- -- -- -- --
2019-11-14 10:00:00 -- -- -- -- -- -- -- -- --
2019-11-14 09:00:00 -- -- -- -- -- -- -- -- --
2019-11-14 08:00:00 -- -- -- -- -- -- -- -- --
2019-11-14 07:00:00 -- -- -- -- -- -- -- -- --
2019-11-14 06:00:00 -- -- -- -- -- -- -- -- --
2019-11-14 05:00:00 -- -- -- -- -- -- -- -- --
2019-11-14 04:00:00 -- -- -- -- -- -- -- -- --
2019-11-14 03:00:00 -- -- -- -- -- -- -- -- --
2019-11-14 02:00:00 -- -- -- -- -- -- -- -- --
2019-11-14 01:00:00 -- -- -- -- -- -- -- -- --
2019-11-14 00:00:00 -- -- -- -- -- -- -- -- --
2019-11-13 23:00:00 -- -- -- -- -- -- -- -- --
2019-11-13 22:00:00 -- -- -- -- -- -- -- -- --
2019-11-13 21:00:00 -- -- -- -- -- -- -- -- --
2019-11-13 20:00:00 -- -- -- -- -- -- -- -- --
2019-11-13 19:00:00 -- -- -- -- -- -- -- -- --
2019-11-13 18:00:00 -- -- -- -- -- -- -- -- --
2019-11-13 17:00:00 -- -- -- -- -- -- -- -- --
2019-11-13 16:00:00 -- -- -- -- -- -- -- -- --
2019-11-13 15:00:00 -- -- -- -- -- -- -- -- --
2019-11-13 14:00:00 -- -- -- -- -- -- -- -- --
2019-11-13 13:00:00 -- -- -- -- -- -- -- -- --
2019-11-13 12:00:00 -- -- -- -- -- -- -- -- --
2019-11-13 11:00:00 -- -- -- -- -- -- -- -- --
2019-11-13 10:00:00 -- -- -- -- -- -- -- -- --
2019-11-13 09:00:00 -- -- -- -- -- -- -- -- --
2019-11-13 08:00:00 -- -- -- -- -- -- -- -- --
2019-11-13 07:00:00 -- -- -- -- -- -- -- -- --
2019-11-13 06:00:00 -- -- -- -- -- -- -- -- --
2019-11-13 05:00:00 -- -- -- -- -- -- -- -- --
2019-11-13 04:00:00 -- -- -- -- -- -- -- -- --
2019-11-13 03:00:00 -- -- -- -- -- -- -- -- --
2019-11-13 02:00:00 -- -- -- -- -- -- -- -- --
2019-11-13 01:00:00 -- -- -- -- -- -- -- -- --
2019-11-13 00:00:00 -- -- -- -- -- -- -- -- --
2019-11-12 23:00:00 -- -- -- -- -- -- -- -- --
2019-11-12 22:00:00 -- -- -- -- -- -- -- -- --
2019-11-12 21:00:00 -- -- -- -- -- -- -- -- --
2019-11-12 20:00:00 -- -- -- -- -- -- -- -- --
2019-11-12 19:00:00 -- -- -- -- -- -- -- -- --
2019-11-12 18:00:00 -- -- -- -- -- -- -- -- --
2019-11-12 17:00:00 -- -- -- -- -- -- -- -- --
2019-11-12 16:00:00 -- -- -- -- -- -- -- -- --
2019-11-12 15:00:00 -- -- -- -- -- -- -- -- --
2019-11-12 14:00:00 -- -- -- -- -- -- -- -- --
2019-11-12 13:00:00 -- -- -- -- -- -- -- -- --
2019-11-12 12:00:00 -- -- -- -- -- -- -- -- --
2019-11-12 11:00:00 -- -- -- -- -- -- -- -- --
2019-11-12 10:00:00 9.3 10 Noroeste 17 Noroeste 0 966.9 1.1 72
2019-11-12 09:00:00 7.6 8 Noroeste 19 Oeste 0 966.4 0.4 73
2019-11-12 08:00:00 7.5 12 Noroeste 19 Noroeste 0 966.3 0.6 69
2019-11-12 07:00:00 7.4 6 Sudoeste 23 Oeste 0 965.8 0.2 69
2019-11-12 06:00:00 8 15 Oeste 23 Noroeste 0 966 -0.7 67
2019-11-12 05:00:00 7.8 8 Sudoeste 19 Noroeste 0 965.7 -1.1 71
2019-11-12 04:00:00 8.7 8 Oeste 18 Oeste 0 965.6 -1.4 70
2019-11-12 03:00:00 9.6 10 Oeste 20 Oeste 0 966.7 -0.2 76
2019-11-12 02:00:00 9.9 7 Oeste 19 Oeste 0 966.8 -0.3 81
2019-11-12 01:00:00 10 9 Oeste 16 Oeste 0 967 0.1 84
2019-11-12 00:00:00 9.4 6 Sudoeste 16 Oeste 0 966.9 0.3 85
2019-11-11 23:00:00 9.4 6 Oeste 13 Sudoeste 0 967.1 0.9 85
2019-11-11 22:00:00 10.7 7 Oeste 16 Oeste 0 966.9 1 80
2019-11-11 21:00:00 11.6 13 Oeste 27 Oeste 0 966.6 1.2 76
2019-11-11 20:00:00 12.2 15 Oeste 26 Noroeste 0 966.2 1.2 75
2019-11-11 19:00:00 13.4 13 Oeste 28 Oeste 0 965.9 1.3 73
2019-11-11 18:00:00 15.3 17 Noroeste 39 Oeste 0 965.4 0.6 60
2019-11-11 17:00:00 16.3 21 Noroeste 45 Noroeste 0 965 -0.3 56
2019-11-11 16:00:00 17.4 21 Oeste 40 Oeste 0 964.6 -1.7 61
2019-11-11 15:00:00 17.3 21 Oeste 41 Oeste 0 964.8 -2.2 67
2019-11-11 14:00:00 16.8 19 Oeste 35 Noroeste 0 965.3 -1.5 75
2019-11-11 13:00:00 15.8 17 Oeste 33 Noroeste 0 966.3 -0.4 80
2019-11-11 12:00:00 14.8 21 Oeste 36 Oeste 0 967 0.2 83
2019-11-11 11:00:00 14.7 15 Oeste 31 Oeste 0 966.8 0.3 81
2019-11-11 10:00:00 13.2 13 Oeste 24 Oeste 0 966.7 0 89
2019-11-11 09:00:00 12.2 9 Oeste 18 Oeste 0 966.8 -0.4 95
2019-11-11 08:00:00 10.6 2 Oeste 6 Sudoeste 0 966.5 -0.2 93
2019-11-11 07:00:00 10.8 2 Sudoeste 4 Sur 0 966.7 -0.8 94
2019-11-11 06:00:00 10.4 2 Este 4 Este 0 967.2 -0.1 94
2019-11-11 05:00:00 10.2 3 Sudeste 9 Nordeste 0 966.7 -1.1 95
2019-11-11 04:00:00 10.3 4 Noroeste 13 Oeste 0 967.5 -0.8 95
2019-11-11 03:00:00 10.2 9 Oeste 16 Oeste 0 967.3 -1.4 95
2019-11-11 02:00:00 9.7 9 Oeste 24 Oeste 0 967.8 -1 94
2019-11-11 01:00:00 9.9 14 Oeste 23 Oeste 0 968.3 -0.5 90
2019-11-11 00:00:00 9.8 12 Oeste 27 Oeste 0 968.7 -0.3 86